Shanghai Express — DPCK — position and weather

sailwx.info

Track history (hours):
 
Tides and Currents Weather Stations Pressure Air Temp Water Temp Dewpoint Dewpoint Depression Visibility Wind Speed Wind Dir Waves Ship Positions

Shanghai Express

Last reported at 2015-Jan-25 23:29 UTC. Time now 2015-Jan-27 10:24 UTC.
Position N 31°28' E 031°45'.

Length 320.6 m; beam 42.8 m; draft 14.5 m.

Type: Ship (hazmat cat A). MMSI: 211367460.

Date/timePositionNaut miles runAvg speedWind from/ knotsBaromVisibWave heightAir tempDewpointWater temp
2015-Jan-25 23:29N 31°28' E 031°45'0 0.0
2015-Jan-25 22:32N 31°28' E 031°46'0 0.0
2015-Jan-25 20:10N 31°28' E 031°46'32 6.9
2015-Jan-25 15:33N 31°51' E 031°20'87021.0
2015-Jan-23 22:08N 36°33' E 014°45'1221.6
2015-Jan-23 21:33N 36°37' E 014°30'2121.4
2015-Jan-23 20:33N 36°46' E 014°06'2221.6
2015-Jan-23 19:33N 36°55' E 013°41'23121.0
2015-Jan-23 08:32N 38°54' E 009°30'2020.3
2015-Jan-23 07:33N 39°05' E 009°09'8 8.0
2015-Jan-23 06:33N 39°13' E 009°05'0 0.0
2015-Jan-23 05:33N 39°13' E 009°05'0 0.0
2015-Jan-23 04:33N 39°13' E 009°05'0 0.0
2015-Jan-23 03:33N 39°13' E 009°05'0 0.0
2015-Jan-23 02:32N 39°13' E 009°05'0 0.0
2015-Jan-23 01:32N 39°13' E 009°05'0 0.0
2015-Jan-23 00:31N 39°13' E 009°05'0 0.0
2015-Jan-22 23:31N 39°13' E 009°05'0 0.0
2015-Jan-22 22:33N 39°13' E 009°05'0 0.0
2015-Jan-22 21:33N 39°13' E 009°05'0 0.0
2015-Jan-22 20:33N 39°13' E 009°05'0 0.0
2015-Jan-22 19:32N 39°13' E 009°05'0 0.0
2015-Jan-22 18:32N 39°13' E 009°05'0 0.0
2015-Jan-22 17:31N 39°13' E 009°05'0 0.0
2015-Jan-22 16:31N 39°13' E 009°05'0 0.0
2015-Jan-22 15:33N 39°13' E 009°05'0 0.0
2015-Jan-22 14:33N 39°13' E 009°05'0 0.0
2015-Jan-22 13:33N 39°13' E 009°05'0 0.0
2015-Jan-22 12:32N 39°13' E 009°05'0 0.0
2015-Jan-22 11:32N 39°13' E 009°05'0 0.0
2015-Jan-22 10:31N 39°13' E 009°05'0 0.0
2015-Jan-22 09:31N 39°13' E 009°05'0 0.0
2015-Jan-22 08:33N 39°13' E 009°05'0 0.0
2015-Jan-22 07:33N 39°13' E 009°05'1 1.4
2015-Jan-22 06:33N 39°12' E 009°06'4 4.2
2015-Jan-22 05:33N 39°08' E 009°07'2 2.2
2015-Jan-22 04:33N 39°05' E 009°08'1413.9
2015-Jan-22 03:33N 38°52' E 009°02'1413.4
2015-Jan-22 02:33N 38°46' E 008°46'3414.0
2015-Jan-22 00:08N 38°37' E 008°05'  
2015-Jan-19 12:00N 36°00' W 012°42'19916.6 360 / 331025.010.8 3.014.5 4.716.0
2015-Jan-19 00:00N 36°00' W 016°48'19716.4 360 / 301027.0 5.4 13.5 9.016.0
2015-Jan-18 12:00N 37°24' W 020°30'16216.9 360 / 271028.0 5.4 1.515.813.516.0
2015-Jan-18 02:27N 37°56' W 023°50'1516.5
2015-Jan-18 01:33N 37°57' W 024°09'1716.6
2015-Jan-18 00:34N 37°59' W 024°30'1017.3
2015-Jan-18 00:00N 38°00' W 024°42'716.3 280 / 261031.0 5.4 16.012.716.0
2015-Jan-17 23:33N 38°04' W 024°50'1717.0
2015-Jan-17 22:33N 38°13' W 025°08'1717.2
2015-Jan-17 21:33N 38°23' W 025°26'1717.2
2015-Jan-17 20:33N 38°33' W 025°44'1817.5
2015-Jan-17 19:33N 38°43' W 026°02'1717.3
2015-Jan-17 18:33N 38°54' W 026°19'3417.2
2015-Jan-17 16:33N 39°03' W 027°02'1717.0
2015-Jan-17 15:34N 39°06' W 027°24'1717.0
2015-Jan-17 14:33N 39°09' W 027°45'1717.1
2015-Jan-17 13:33N 39°10' W 028°07'1717.1
2015-Jan-17 12:33N 39°09' W 028°29'1717.1
2015-Jan-17 11:33N 39°08' W 028°51'1716.8
2015-Jan-17 10:33N 39°06' W 029°13'1716.8
2015-Jan-17 09:33N 39°02' W 029°34'1716.9
2015-Jan-17 08:33N 38°54' W 029°53'1717.2
2015-Jan-17 07:33N 38°47' W 030°13'1717.2
2015-Jan-17 06:33N 38°40' W 030°33'2217.0
2015-Jan-17 05:16N 38°30' W 030°59'1316.6
2015-Jan-17 04:29N 38°25' W 031°14'1617.1
2015-Jan-17 03:32N 38°18' W 031°32'1916.9
2015-Jan-17 02:24N 38°10' W 031°54'4016.4
2015-Jan-17 00:00N 37°48' W 032°36'19816.5 230 / 151033.010.8 18.016.417.0
2015-Jan-16 12:00N 36°30' W 036°24'20717.3 230 / 201032.010.8 0.520.016.119.0
2015-Jan-16 00:00N 36°36' W 040°42'   200 / 201030.5 5.4 19.017.519.0
Track history (hours):
 
Tides and Currents Weather Stations Pressure Air Temp Water Temp Dewpoint Dewpoint Depression Visibility Wind Speed Wind Dir Waves Ship Positions

Shanghai Express

Last reported at 2015-Jan-25 23:29 UTC. Time now 2015-Jan-27 10:24 UTC.
Position N 31°28' E 031°45'.

Length 320.6 m; beam 42.8 m; draft 14.5 m.

Type: Ship (hazmat cat A). MMSI: 211367460.

Date/timePositionNaut miles runAvg speedWind from/ knotsBaromVisibWave heightAir tempDewpointWater temp
2015-Jan-25 23:29N 31°28' E 031°45'0 0.0
2015-Jan-25 22:32N 31°28' E 031°46'0 0.0
2015-Jan-25 20:10N 31°28' E 031°46'32 6.9
2015-Jan-25 15:33N 31°51' E 031°20'87021.0
2015-Jan-23 22:08N 36°33' E 014°45'1221.6
2015-Jan-23 21:33N 36°37' E 014°30'2121.4
2015-Jan-23 20:33N 36°46' E 014°06'2221.6
2015-Jan-23 19:33N 36°55' E 013°41'23121.0
2015-Jan-23 08:32N 38°54' E 009°30'2020.3
2015-Jan-23 07:33N 39°05' E 009°09'8 8.0
2015-Jan-23 06:33N 39°13' E 009°05'0 0.0
2015-Jan-23 05:33N 39°13' E 009°05'0 0.0
2015-Jan-23 04:33N 39°13' E 009°05'0 0.0
2015-Jan-23 03:33N 39°13' E 009°05'0 0.0
2015-Jan-23 02:32N 39°13' E 009°05'0 0.0
2015-Jan-23 01:32N 39°13' E 009°05'0 0.0
2015-Jan-23 00:31N 39°13' E 009°05'0 0.0
2015-Jan-22 23:31N 39°13' E 009°05'0 0.0
2015-Jan-22 22:33N 39°13' E 009°05'0 0.0
2015-Jan-22 21:33N 39°13' E 009°05'0 0.0
2015-Jan-22 20:33N 39°13' E 009°05'0 0.0
2015-Jan-22 19:32N 39°13' E 009°05'0 0.0
2015-Jan-22 18:32N 39°13' E 009°05'0 0.0
2015-Jan-22 17:31N 39°13' E 009°05'0 0.0
2015-Jan-22 16:31N 39°13' E 009°05'0 0.0
2015-Jan-22 15:33N 39°13' E 009°05'0 0.0
2015-Jan-22 14:33N 39°13' E 009°05'0 0.0
2015-Jan-22 13:33N 39°13' E 009°05'0 0.0
2015-Jan-22 12:32N 39°13' E 009°05'0 0.0
2015-Jan-22 11:32N 39°13' E 009°05'0 0.0
2015-Jan-22 10:31N 39°13' E 009°05'0 0.0
2015-Jan-22 09:31N 39°13' E 009°05'0 0.0
2015-Jan-22 08:33N 39°13' E 009°05'0 0.0
2015-Jan-22 07:33N 39°13' E 009°05'1 1.4
2015-Jan-22 06:33N 39°12' E 009°06'4 4.2
2015-Jan-22 05:33N 39°08' E 009°07'2 2.2
2015-Jan-22 04:33N 39°05' E 009°08'1413.9
2015-Jan-22 03:33N 38°52' E 009°02'1413.4
2015-Jan-22 02:33N 38°46' E 008°46'3414.0
2015-Jan-22 00:08N 38°37' E 008°05'  
2015-Jan-19 12:00N 36°00' W 012°42'19916.6 360 / 331025.010.8 3.014.5 4.716.0
2015-Jan-19 00:00N 36°00' W 016°48'19716.4 360 / 301027.0 5.4 13.5 9.016.0
2015-Jan-18 12:00N 37°24' W 020°30'16216.9 360 / 271028.0 5.4 1.515.813.516.0
2015-Jan-18 02:27N 37°56' W 023°50'1516.5
2015-Jan-18 01:33N 37°57' W 024°09'1716.6
2015-Jan-18 00:34N 37°59' W 024°30'1017.3
2015-Jan-18 00:00N 38°00' W 024°42'716.3 280 / 261031.0 5.4 16.012.716.0
2015-Jan-17 23:33N 38°04' W 024°50'1717.0
2015-Jan-17 22:33N 38°13' W 025°08'1717.2
2015-Jan-17 21:33N 38°23' W 025°26'1717.2
2015-Jan-17 20:33N 38°33' W 025°44'1817.5
2015-Jan-17 19:33N 38°43' W 026°02'1717.3
2015-Jan-17 18:33N 38°54' W 026°19'3417.2
2015-Jan-17 16:33N 39°03' W 027°02'1717.0
2015-Jan-17 15:34N 39°06' W 027°24'1717.0
2015-Jan-17 14:33N 39°09' W 027°45'1717.1
2015-Jan-17 13:33N 39°10' W 028°07'1717.1
2015-Jan-17 12:33N 39°09' W 028°29'1717.1
2015-Jan-17 11:33N 39°08' W 028°51'1716.8
2015-Jan-17 10:33N 39°06' W 029°13'1716.8
2015-Jan-17 09:33N 39°02' W 029°34'1716.9
2015-Jan-17 08:33N 38°54' W 029°53'1717.2
2015-Jan-17 07:33N 38°47' W 030°13'1717.2
2015-Jan-17 06:33N 38°40' W 030°33'2217.0
2015-Jan-17 05:16N 38°30' W 030°59'1316.6
2015-Jan-17 04:29N 38°25' W 031°14'1617.1
2015-Jan-17 03:32N 38°18' W 031°32'1916.9
2015-Jan-17 02:24N 38°10' W 031°54'4016.4
2015-Jan-17 00:00N 37°48' W 032°36'19816.5 230 / 151033.010.8 18.016.417.0
2015-Jan-16 12:00N 36°30' W 036°24'20717.3 230 / 201032.010.8 0.520.016.119.0
2015-Jan-16 00:00N 36°36' W 040°42'   200 / 201030.5 5.4 19.017.519.0

Dump ship's entire track history